CYGX

Gillam Airport

Gillam, Manitoba, Canada
METAR CYGX 212300Z 07009G15KT 010V110 15SM FEW040 FEW320 19/06 A2993 RMK CU1CI1 SLP142 DENSITY ALT 1100FT
Observed Flight Rules
Jun-21 @ 23:00 UTC (55 minutes ago) Visual Flight Rules
Wind Visibility Clouds
70° at 9 knots
 Gusting to 15 knots
15 miles
  • Few at 4,000' AGL
  • Few at 32,000' AGL
Temperatures Readings
Current 19°C / 66°F
Dewpoint 6°C / 43°F
Humidity 43%
Altimeter 29.93" Hg
Pressure 1014.2 hPa
Elevation 145
METAR CYGX 212300Z 07009G15KT 010V110 15SM FEW040 FEW320 19/06 A2993 RMK CU1CI1 SLP142 DENSITY ALT 1100FT
Observed Flight Rules
Jun-21 @ 23:00 UTC
(55 minutes ago)
VFR
Wind Visibility
70° at 9 knots
 Gusting to 15 knots
15 miles
Clouds
  • Few at 4,000' AGL
  • Few at 32,000' AGL
Temperature Dewpoint
19°C / 66°F 6°C / 43°F
Humidity Altimeter Pressure
43% 29.93" Hg 1014.2 hPa